KHOT

Memorial Field Airport

Hot Springs, Arkansas, USA
METAR KHOT 171638Z AUTO 13004KT 10SM BKN021 28/24 A3007 RMK AO2 LTG DSNT N AND NW T02830239
Observed Flight Rules
Aug-17 @ 16:38 UTC (14 minutes ago) Marginal Visual Flight Rules
Wind Visibility Clouds
130° at 4 knots 10 miles
  • Broken at 2,100' AGL
Temperatures Readings
Current 28°C / 82°F
Dewpoint 24°C / 75°F
Humidity 79%
Altimeter 30.07" Hg
Pressure 1018 hPa
Elevation 162
METAR KHOT 171638Z AUTO 13004KT 10SM BKN021 28/24 A3007 RMK AO2 LTG DSNT N AND NW T02830239
Observed Flight Rules
Aug-17 @ 16:38 UTC
(14 minutes ago)
MVFR
Wind Visibility
130° at 4 knots 10 miles
Clouds
  • Broken at 2,100' AGL
Temperature Dewpoint
28°C / 82°F 24°C / 75°F
Humidity Altimeter Pressure
79% 30.07" Hg 1018 hPa